sensor_id;sensor_type;location;lat;lon;timestamp;pressure;altitude;pressure_sealevel;temperature;humidity
62011;BME280;47967;51.756;10.174;2023-05-07T04:02:54;100060.34;;;11.57;81.56
62011;BME280;47967;51.756;10.174;2023-05-07T04:07:00;100070.13;;;11.64;81.42
62011;BME280;47967;51.756;10.174;2023-05-07T04:11:04;100073.09;;;11.69;81.15
62011;BME280;47967;51.756;10.174;2023-05-07T04:15:10;100075.16;;;11.67;80.78
62011;BME280;47967;51.756;10.174;2023-05-07T04:19:14;100083.72;;;11.78;80.54
62011;BME280;47967;51.756;10.174;2023-05-07T04:23:16;100079.81;;;11.80;79.94
62011;BME280;47967;51.756;10.174;2023-05-07T04:27:19;100087.94;;;11.87;79.92
62011;BME280;47967;51.756;10.174;2023-05-07T04:31:22;100090.44;;;11.89;79.41
62011;BME280;47967;51.756;10.174;2023-05-07T04:35:29;100090.00;;;11.85;79.22
62011;BME280;47967;51.756;10.174;2023-05-07T04:39:33;100096.47;;;11.91;78.73
62011;BME280;47967;51.756;10.174;2023-05-07T04:43:37;100095.50;;;11.98;78.31
62011;BME280;47967;51.756;10.174;2023-05-07T04:47:39;100086.78;;;12.03;77.91
62011;BME280;47967;51.756;10.174;2023-05-07T04:51:44;100098.63;;;12.02;77.81
62011;BME280;47967;51.756;10.174;2023-05-07T04:55:54;100090.31;;;11.97;77.40
62011;BME280;47967;51.756;10.174;2023-05-07T04:59:59;100089.50;;;12.03;77.40
62011;BME280;47967;51.756;10.174;2023-05-07T05:04:02;100094.94;;;12.16;77.40
62011;BME280;47967;51.756;10.174;2023-05-07T05:08:07;100110.41;;;12.36;76.72
62011;BME280;47967;51.756;10.174;2023-05-07T05:12:12;100123.34;;;12.34;76.26
62011;BME280;47967;51.756;10.174;2023-05-07T05:16:15;100123.34;;;12.34;75.25
62011;BME280;47967;51.756;10.174;2023-05-07T05:20:18;100123.94;;;12.36;75.75
62011;BME280;47967;51.756;10.174;2023-05-07T05:24:23;100132.50;;;12.40;75.37
62011;BME280;47967;51.756;10.174;2023-05-07T05:28:26;100133.94;;;12.36;75.39
62011;BME280;47967;51.756;10.174;2023-05-07T05:32:31;100142.47;;;12.32;75.04
62011;BME280;47967;51.756;10.174;2023-05-07T05:36:35;100150.41;;;12.34;74.99
62011;BME280;47967;51.756;10.174;2023-05-07T05:40:39;100139.41;;;12.56;74.61
62011;BME280;47967;51.756;10.174;2023-05-07T05:44:42;100138.81;;;12.54;73.82
62011;BME280;47967;51.756;10.174;2023-05-07T05:48:45;100145.47;;;12.58;73.78
62011;BME280;47967;51.756;10.174;2023-05-07T05:52:48;100141.94;;;12.57;74.33
62011;BME280;47967;51.756;10.174;2023-05-07T05:56:52;100139.69;;;12.74;73.74
62011;BME280;47967;51.756;10.174;2023-05-07T06:00:55;100140.28;;;12.70;73.30
62011;BME280;47967;51.756;10.174;2023-05-07T06:05:01;100132.19;;;12.83;72.91
62011;BME280;47967;51.756;10.174;2023-05-07T06:09:04;100133.66;;;12.86;73.51
62011;BME280;47967;51.756;10.174;2023-05-07T06:13:15;100133.06;;;13.04;72.87
62011;BME280;47967;51.756;10.174;2023-05-07T06:17:18;100128.88;;;13.08;72.77
62011;BME280;47967;51.756;10.174;2023-05-07T06:21:24;100136.38;;;13.06;72.24
62011;BME280;47967;51.756;10.174;2023-05-07T06:25:26;100145.13;;;12.88;72.42
62011;BME280;47967;51.756;10.174;2023-05-07T06:29:31;100137.84;;;13.22;71.63
62011;BME280;47967;51.756;10.174;2023-05-07T06:33:37;100148.88;;;13.20;71.28
62011;BME280;47967;51.756;10.174;2023-05-07T06:37:41;100145.13;;;13.35;70.89
62011;BME280;47967;51.756;10.174;2023-05-07T06:41:50;100140.13;;;13.32;70.20
62011;BME280;47967;51.756;10.174;2023-05-07T06:46:01;100144.75;;;13.44;69.57
62011;BME280;47967;51.756;10.174;2023-05-07T06:50:04;100147.03;;;13.41;69.67
62011;BME280;47967;51.756;10.174;2023-05-07T06:54:08;100147.63;;;13.36;69.95
62011;BME280;47967;51.756;10.174;2023-05-07T06:58:13;100156.41;;;13.45;69.10
62011;BME280;47967;51.756;10.174;2023-05-07T07:02:17;100163.31;;;13.41;68.96
62011;BME280;47967;51.756;10.174;2023-05-07T07:06:21;100166.44;;;13.51;68.66
62011;BME280;47967;51.756;10.174;2023-05-07T07:10:24;100169.53;;;13.41;68.43
62011;BME280;47967;51.756;10.174;2023-05-07T07:14:28;100167.91;;;13.54;68.17
62011;BME280;47967;51.756;10.174;2023-05-07T07:18:32;100170.41;;;13.55;68.27
62011;BME280;47967;51.756;10.174;2023-05-07T07:22:35;100172.88;;;13.37;68.47
62011;BME280;47967;51.756;10.174;2023-05-07T07:26:37;100174.34;;;13.46;68.03
62011;BME280;47967;51.756;10.174;2023-05-07T07:30:41;100175.81;;;13.49;68.21
62011;BME280;47967;51.756;10.174;2023-05-07T07:34:46;100175.16;;;13.80;67.31
62011;BME280;47967;51.756;10.174;2023-05-07T07:38:48;100173.44;;;13.92;67.44
62011;BME280;47967;51.756;10.174;2023-05-07T07:42:52;100172.22;;;13.88;66.69
62011;BME280;47967;51.756;10.174;2023-05-07T07:46:56;100181.84;;;13.77;66.74
62011;BME280;47967;51.756;10.174;2023-05-07T07:51:01;100173.06;;;13.82;66.93
62011;BME280;47967;51.756;10.174;2023-05-07T07:55:05;100178.91;;;13.79;66.41
62011;BME280;47967;51.756;10.174;2023-05-07T07:59:08;100183.88;;;13.89;65.96
62011;BME280;47967;51.756;10.174;2023-05-07T08:03:14;100184.03;;;14.14;65.81
62011;BME280;47967;51.756;10.174;2023-05-07T08:07:23;100183.59;;;14.31;64.43
62011;BME280;47967;51.756;10.174;2023-05-07T08:11:27;100184.53;;;13.98;64.77
62011;BME280;47967;51.756;10.174;2023-05-07T08:15:30;100181.53;;;14.19;64.81
62011;BME280;47967;51.756;10.174;2023-05-07T08:19:33;100189.19;;;14.36;64.80
62011;BME280;47967;51.756;10.174;2023-05-07T08:23:38;100187.94;;;14.38;63.80
62011;BME280;47967;51.756;10.174;2023-05-07T08:27:41;100193.00;;;14.28;64.16
62011;BME280;47967;51.756;10.174;2023-05-07T08:31:46;100194.50;;;14.17;64.22
62011;BME280;47967;51.756;10.174;2023-05-07T08:35:49;100189.06;;;14.17;64.99
62011;BME280;47967;51.756;10.174;2023-05-07T08:39:53;100193.19;;;14.33;64.96
62011;BME280;47967;51.756;10.174;2023-05-07T08:44:02;100191.22;;;14.47;64.22
62011;BME280;47967;51.756;10.174;2023-05-07T08:48:08;100183.47;;;14.57;63.96
62011;BME280;47967;51.756;10.174;2023-05-07T08:52:11;100192.59;;;14.77;63.19
62011;BME280;47967;51.756;10.174;2023-05-07T08:56:17;100182.25;;;14.92;62.77
62011;BME280;47967;51.756;10.174;2023-05-07T09:00:24;100195.38;;;15.02;62.75
62011;BME280;47967;51.756;10.174;2023-05-07T09:04:28;100192.50;;;15.22;61.71
62011;BME280;47967;51.756;10.174;2023-05-07T09:08:34;100195.75;;;15.37;61.56
62011;BME280;47967;51.756;10.174;2023-05-07T09:12:40;100203.28;;;15.61;61.16
62011;BME280;47967;51.756;10.174;2023-05-07T09:16:46;100203.28;;;15.35;61.14
62011;BME280;47967;51.756;10.174;2023-05-07T09:20:48;100209.66;;;15.23;61.06
62011;BME280;47967;51.756;10.174;2023-05-07T09:24:54;100205.53;;;15.45;60.83
62011;BME280;47967;51.756;10.174;2023-05-07T09:29:01;100207.53;;;15.57;60.60
62011;BME280;47967;51.756;10.174;2023-05-07T09:33:04;100206.00;;;15.61;60.74
62011;BME280;47967;51.756;10.174;2023-05-07T09:37:12;100210.34;;;15.68;60.35
62011;BME280;47967;51.756;10.174;2023-05-07T09:41:15;100222.28;;;15.93;59.70
62011;BME280;47967;51.756;10.174;2023-05-07T09:45:28;100217.25;;;16.33;59.27
62011;BME280;47967;51.756;10.174;2023-05-07T09:49:34;100222.22;;;16.37;58.80
62011;BME280;47967;51.756;10.174;2023-05-07T09:53:40;100207.16;;;16.53;58.08
62011;BME280;47967;51.756;10.174;2023-05-07T09:57:45;100211.72;;;16.40;58.90
62011;BME280;47967;51.756;10.174;2023-05-07T10:01:51;100206.97;;;16.54;58.06
62011;BME280;47967;51.756;10.174;2023-05-07T10:05:55;100206.41;;;16.64;57.65
62011;BME280;47967;51.756;10.174;2023-05-07T10:09:59;100208.47;;;16.50;57.69
62011;BME280;47967;51.756;10.174;2023-05-07T10:14:07;100210.47;;;16.73;56.72
62011;BME280;47967;51.756;10.174;2023-05-07T10:18:12;100207.41;;;16.32;57.63
62011;BME280;47967;51.756;10.174;2023-05-07T10:22:18;100203.25;;;16.48;57.62
62011;BME280;47967;51.756;10.174;2023-05-07T10:26:23;100207.44;;;16.81;57.23
62011;BME280;47967;51.756;10.174;2023-05-07T10:30:36;100216.31;;;16.58;56.91
62011;BME280;47967;51.756;10.174;2023-05-07T10:34:45;100211.06;;;16.94;56.03
62011;BME280;47967;51.756;10.174;2023-05-07T10:38:51;100208.69;;;17.28;55.89
62011;BME280;47967;51.756;10.174;2023-05-07T10:42:55;100205.84;;;17.35;55.74
62011;BME280;47967;51.756;10.174;2023-05-07T10:47:04;100203.63;;;17.55;55.02
62011;BME280;47967;51.756;10.174;2023-05-07T10:51:21;100209.81;;;17.74;55.22
62011;BME280;47967;51.756;10.174;2023-05-07T10:55:35;100212.19;;;18.30;53.59
62011;BME280;47967;51.756;10.174;2023-05-07T10:59:52;100209.59;;;17.76;53.64
62011;BME280;47967;51.756;10.174;2023-05-07T11:04:14;100214.38;;;18.57;53.05
62011;BME280;47967;51.756;10.174;2023-05-07T11:08:52;100214.91;;;18.18;53.28
62011;BME280;47967;51.756;10.174;2023-05-07T11:12:58;100204.59;;;17.73;54.27
62011;BME280;47967;51.756;10.174;2023-05-07T11:17:11;100213.38;;;17.63;54.50
62011;BME280;47967;51.756;10.174;2023-05-07T11:21:34;100198.41;;;17.66;54.58
62011;BME280;47967;51.756;10.174;2023-05-07T11:25:58;100203.63;;;18.38;53.17
62011;BME280;47967;51.756;10.174;2023-05-07T11:30:03;100199.84;;;18.56;52.50
62011;BME280;47967;51.756;10.174;2023-05-07T11:34:06;100200.06;;;18.67;52.43
62011;BME280;47967;51.756;10.174;2023-05-07T11:38:10;100201.16;;;18.66;52.13
62011;BME280;47967;51.756;10.174;2023-05-07T11:42:30;100205.75;;;18.36;52.24
62011;BME280;47967;51.756;10.174;2023-05-07T11:46:33;100212.09;;;18.01;52.87
62011;BME280;47967;51.756;10.174;2023-05-07T11:50:36;100200.28;;;18.36;52.71
62011;BME280;47967;51.756;10.174;2023-05-07T11:54:38;100207.88;;;18.34;52.80
62011;BME280;47967;51.756;10.174;2023-05-07T11:58:44;100206.72;;;18.18;53.07
62011;BME280;47967;51.756;10.174;2023-05-07T12:02:47;100213.88;;;18.60;52.54
62011;BME280;47967;51.756;10.174;2023-05-07T12:06:53;100214.59;;;19.25;52.03
62011;BME280;47967;51.756;10.174;2023-05-07T12:10:57;100216.44;;;19.08;51.71
62011;BME280;47967;51.756;10.174;2023-05-07T12:15:01;100208.94;;;19.32;51.80
62011;BME280;47967;51.756;10.174;2023-05-07T12:19:03;100207.75;;;19.11;52.37
62011;BME280;47967;51.756;10.174;2023-05-07T12:23:07;100210.53;;;19.96;49.75
62011;BME280;47967;51.756;10.174;2023-05-07T12:27:10;100207.63;;;19.51;50.33
62011;BME280;47967;51.756;10.174;2023-05-07T12:31:14;100204.91;;;19.86;50.90
62011;BME280;47967;51.756;10.174;2023-05-07T12:35:26;100201.66;;;19.89;50.41
62011;BME280;47967;51.756;10.174;2023-05-07T12:39:28;100206.69;;;20.58;50.19
62011;BME280;47967;51.756;10.174;2023-05-07T12:43:31;100206.28;;;19.88;49.56
62011;BME280;47967;51.756;10.174;2023-05-07T12:47:35;100209.28;;;19.87;49.96
62011;BME280;47967;51.756;10.174;2023-05-07T12:51:38;100204.66;;;19.70;50.13
62011;BME280;47967;51.756;10.174;2023-05-07T12:55:41;100205.13;;;20.01;49.78
62011;BME280;47967;51.756;10.174;2023-05-07T12:59:44;100205.91;;;20.19;49.87
62011;BME280;47967;51.756;10.174;2023-05-07T13:03:49;100206.47;;;19.98;49.15
62011;BME280;47967;51.756;10.174;2023-05-07T13:07:52;100213.69;;;19.54;49.99
62011;BME280;47967;51.756;10.174;2023-05-07T13:11:55;100198.50;;;19.29;50.52
62011;BME280;47967;51.756;10.174;2023-05-07T13:16:01;100191.63;;;19.26;50.39
62011;BME280;47967;51.756;10.174;2023-05-07T13:20:08;100191.44;;;19.16;51.17
62011;BME280;47967;51.756;10.174;2023-05-07T13:24:11;100194.78;;;19.52;50.38
62011;BME280;47967;51.756;10.174;2023-05-07T13:28:13;100193.78;;;19.41;50.36
62011;BME280;47967;51.756;10.174;2023-05-07T13:32:16;100199.25;;;19.58;50.66
62011;BME280;47967;51.756;10.174;2023-05-07T13:36:20;100191.16;;;20.03;49.27
62011;BME280;47967;51.756;10.174;2023-05-07T13:40:23;100181.63;;;20.27;48.56
62011;BME280;47967;51.756;10.174;2023-05-07T13:44:25;100183.94;;;20.80;47.96
62011;BME280;47967;51.756;10.174;2023-05-07T13:48:28;100190.41;;;20.96;47.63
62011;BME280;47967;51.756;10.174;2023-05-07T13:52:32;100189.16;;;20.82;47.84
62011;BME280;47967;51.756;10.174;2023-05-07T13:56:34;100183.00;;;21.24;46.94
62011;BME280;47967;51.756;10.174;2023-05-07T14:00:37;100182.69;;;21.20;47.17
62011;BME280;47967;51.756;10.174;2023-05-07T14:04:40;100173.69;;;20.98;46.78
62011;BME280;47967;51.756;10.174;2023-05-07T14:08:44;100167.38;;;21.62;46.13
62011;BME280;47967;51.756;10.174;2023-05-07T14:12:47;100168.94;;;21.90;45.88
62011;BME280;47967;51.756;10.174;2023-05-07T14:16:49;100164.44;;;21.74;45.48
62011;BME280;47967;51.756;10.174;2023-05-07T14:20:52;100165.75;;;21.66;45.65
62011;BME280;47967;51.756;10.174;2023-05-07T14:24:56;100170.66;;;21.59;45.79
62011;BME280;47967;51.756;10.174;2023-05-07T14:29:16;100170.75;;;21.74;45.10
62011;BME280;47967;51.756;10.174;2023-05-07T14:33:24;100163.56;;;22.16;45.43
62011;BME280;47967;51.756;10.174;2023-05-07T14:37:27;100164.31;;;22.65;44.32
62011;BME280;47967;51.756;10.174;2023-05-07T14:41:31;100168.13;;;21.95;45.08
62011;BME280;47967;51.756;10.174;2023-05-07T14:45:34;100170.06;;;22.48;43.13
62011;BME280;47967;51.756;10.174;2023-05-07T14:49:37;100177.78;;;22.61;43.97
62011;BME280;47967;51.756;10.174;2023-05-07T14:53:40;100176.91;;;22.45;43.82
62011;BME280;47967;51.756;10.174;2023-05-07T14:57:44;100181.41;;;22.09;45.33
62011;BME280;47967;51.756;10.174;2023-05-07T15:01:47;100181.47;;;21.76;46.26
62011;BME280;47967;51.756;10.174;2023-05-07T15:05:50;100188.00;;;21.65;46.49
62011;BME280;47967;51.756;10.174;2023-05-07T15:09:53;100185.22;;;22.02;46.32
62011;BME280;47967;51.756;10.174;2023-05-07T15:13:57;100186.59;;;22.05;45.96
62011;BME280;47967;51.756;10.174;2023-05-07T15:17:59;100190.16;;;22.00;46.31
62011;BME280;47967;51.756;10.174;2023-05-07T15:22:02;100185.47;;;22.49;45.71
62011;BME280;47967;51.756;10.174;2023-05-07T15:26:04;100194.69;;;22.32;45.31
62011;BME280;47967;51.756;10.174;2023-05-07T15:30:11;100190.00;;;23.01;44.98
62011;BME280;47967;51.756;10.174;2023-05-07T15:34:15;100189.88;;;22.60;45.73
62011;BME280;47967;51.756;10.174;2023-05-07T15:38:18;100192.84;;;22.43;43.75
62011;BME280;47967;51.756;10.174;2023-05-07T15:42:20;100184.66;;;22.64;44.73
62011;BME280;47967;51.756;10.174;2023-05-07T15:46:25;100184.97;;;22.67;44.01
62011;BME280;47967;51.756;10.174;2023-05-07T15:50:28;100188.72;;;21.87;44.92
62011;BME280;47967;51.756;10.174;2023-05-07T15:54:30;100198.59;;;22.36;44.51
62011;BME280;47967;51.756;10.174;2023-05-07T15:58:33;100195.31;;;21.91;45.33
62011;BME280;47967;51.756;10.174;2023-05-07T16:02:37;100186.00;;;21.98;45.66
62011;BME280;47967;51.756;10.174;2023-05-07T16:06:40;100186.78;;;21.55;45.44
62011;BME280;47967;51.756;10.174;2023-05-07T16:10:45;100185.84;;;21.07;46.69
62011;BME280;47967;51.756;10.174;2023-05-07T16:14:47;100177.75;;;20.23;47.97
62011;BME280;47967;51.756;10.174;2023-05-07T16:18:53;100191.16;;;20.03;48.38
62011;BME280;47967;51.756;10.174;2023-05-07T16:22:56;100187.72;;;19.56;49.10
62011;BME280;47967;51.756;10.174;2023-05-07T16:26:58;100196.06;;;20.00;48.99
62011;BME280;47967;51.756;10.174;2023-05-07T16:31:01;100202.00;;;19.58;49.56
62011;BME280;47967;51.756;10.174;2023-05-07T16:35:06;100198.00;;;19.49;48.42
62011;BME280;47967;51.756;10.174;2023-05-07T16:39:09;100187.53;;;19.12;48.55
62011;BME280;47967;51.756;10.174;2023-05-07T16:43:11;100203.53;;;18.62;49.06
62011;BME280;47967;51.756;10.174;2023-05-07T16:47:14;100200.38;;;18.42;49.85
62011;BME280;47967;51.756;10.174;2023-05-07T16:51:18;100197.19;;;18.45;49.83
62011;BME280;47967;51.756;10.174;2023-05-07T16:55:20;100197.81;;;17.75;50.84
62011;BME280;47967;51.756;10.174;2023-05-07T16:59:23;100200.31;;;17.65;51.47
62011;BME280;47967;51.756;10.174;2023-05-07T17:03:25;100196.03;;;17.69;51.78
62011;BME280;47967;51.756;10.174;2023-05-07T17:07:30;100203.72;;;17.37;52.38
62011;BME280;47967;51.756;10.174;2023-05-07T17:11:33;100201.91;;;17.31;52.73
62011;BME280;47967;51.756;10.174;2023-05-07T17:15:36;100210.34;;;17.29;52.94
62011;BME280;47967;51.756;10.174;2023-05-07T17:19:39;100214.66;;;17.49;52.75
62011;BME280;47967;51.756;10.174;2023-05-07T17:23:42;100222.34;;;17.40;52.89
62011;BME280;47967;51.756;10.174;2023-05-07T17:27:45;100227.66;;;16.74;53.08
62011;BME280;47967;51.756;10.174;2023-05-07T17:31:47;100234.72;;;16.63;53.96
62011;BME280;47967;51.756;10.174;2023-05-07T17:35:51;100244.78;;;16.25;54.33
62011;BME280;47967;51.756;10.174;2023-05-07T17:39:56;100240.09;;;16.32;54.77
62011;BME280;47967;51.756;10.174;2023-05-07T17:43:58;100260.13;;;16.20;55.65
62011;BME280;47967;51.756;10.174;2023-05-07T17:48:01;100268.03;;;16.03;56.14
62011;BME280;47967;51.756;10.174;2023-05-07T17:52:04;100273.56;;;15.64;57.12
62011;BME280;47967;51.756;10.174;2023-05-07T17:56:08;100274.91;;;15.23;57.80
62011;BME280;47967;51.756;10.174;2023-05-07T18:00:12;100274.13;;;15.09;58.09
62011;BME280;47967;51.756;10.174;2023-05-07T18:04:15;100276.59;;;14.78;58.63
62011;BME280;47967;51.756;10.174;2023-05-07T18:08:19;100278.09;;;14.54;59.18
62011;BME280;47967;51.756;10.174;2023-05-07T18:12:23;100291.50;;;14.42;59.71
62011;BME280;47967;51.756;10.174;2023-05-07T18:16:28;100298.19;;;14.33;59.88
62011;BME280;47967;51.756;10.174;2023-05-07T18:20:30;100294.69;;;13.85;60.47
62011;BME280;47967;51.756;10.174;2023-05-07T18:24:33;100300.13;;;13.79;60.88
62011;BME280;47967;51.756;10.174;2023-05-07T18:28:37;100298.84;;;13.54;61.74
62011;BME280;47967;51.756;10.174;2023-05-07T18:32:40;100295.31;;;13.60;61.89
62011;BME280;47967;51.756;10.174;2023-05-07T18:36:42;100305.69;;;13.37;62.03
62011;BME280;47967;51.756;10.174;2023-05-07T18:40:45;100311.09;;;13.37;62.29
62011;BME280;47967;51.756;10.174;2023-05-07T18:44:49;100305.84;;;13.28;62.76
62011;BME280;47967;51.756;10.174;2023-05-07T18:48:51;100307.72;;;13.15;63.39
62011;BME280;47967;51.756;10.174;2023-05-07T18:52:55;100318.03;;;12.91;63.89
62011;BME280;47967;51.756;10.174;2023-05-07T18:56:57;100318.56;;;12.73;64.59
62011;BME280;47967;51.756;10.174;2023-05-07T19:01:01;100326.09;;;12.77;64.78
62011;BME280;47967;51.756;10.174;2023-05-07T19:05:08;100327.31;;;12.75;64.69
62011;BME280;47967;51.756;10.174;2023-05-07T19:09:11;100331.16;;;12.52;65.28
62011;BME280;47967;51.756;10.174;2023-05-07T19:13:13;100343.19;;;12.43;65.54
62011;BME280;47967;51.756;10.174;2023-05-07T19:17:17;100345.63;;;12.38;65.64
62011;BME280;47967;51.756;10.174;2023-05-07T19:21:20;100346.03;;;12.35;65.90
62011;BME280;47967;51.756;10.174;2023-05-07T19:25:23;100342.41;;;12.21;66.10
62011;BME280;47967;51.756;10.174;2023-05-07T19:29:25;100349.03;;;12.18;66.34
62011;BME280;47967;51.756;10.174;2023-05-07T19:33:29;100365.66;;;12.15;66.53
62011;BME280;47967;51.756;10.174;2023-05-07T19:37:32;100369.28;;;12.00;66.50
62011;BME280;47967;51.756;10.174;2023-05-07T19:41:35;100366.41;;;11.87;67.18
62011;BME280;47967;51.756;10.174;2023-05-07T19:45:37;100352.78;;;11.95;66.94
62011;BME280;47967;51.756;10.174;2023-05-07T19:49:44;100362.63;;;11.81;67.02
62011;BME280;47967;51.756;10.174;2023-05-07T19:53:46;100369.97;;;11.66;67.71
62011;BME280;47967;51.756;10.174;2023-05-07T19:57:49;100371.09;;;11.57;68.20
62011;BME280;47967;51.756;10.174;2023-05-07T20:01:52;100376.72;;;11.55;68.30
62011;BME280;47967;51.756;10.174;2023-05-07T20:05:56;100379.41;;;11.55;68.25
62011;BME280;47967;51.756;10.174;2023-05-07T20:09:58;100371.50;;;11.53;68.54
62011;BME280;47967;51.756;10.174;2023-05-07T20:14:01;100384.94;;;11.47;68.90
62011;BME280;47967;51.756;10.174;2023-05-07T20:18:05;100382.47;;;11.30;69.27
62011;BME280;47967;51.756;10.174;2023-05-07T20:22:08;100391.19;;;11.32;69.31
62011;BME280;47967;51.756;10.174;2023-05-07T20:26:11;100393.84;;;11.26;69.52
62011;BME280;47967;51.756;10.174;2023-05-07T20:30:14;100395.06;;;11.08;70.02
62011;BME280;47967;51.756;10.174;2023-05-07T20:34:16;100401.97;;;10.96;70.86
62011;BME280;47967;51.756;10.174;2023-05-07T20:38:20;100408.84;;;10.83;71.29
62011;BME280;47967;51.756;10.174;2023-05-07T20:42:24;100405.31;;;10.68;71.53
62011;BME280;47967;51.756;10.174;2023-05-07T20:46:26;100406.22;;;10.60;72.20
62011;BME280;47967;51.756;10.174;2023-05-07T20:50:30;100412.38;;;10.54;72.55
62011;BME280;47967;51.756;10.174;2023-05-07T20:54:34;100423.69;;;10.49;72.63
62011;BME280;47967;51.756;10.174;2023-05-07T20:58:40;100413.09;;;10.48;72.39
